Terminal Aerodrome Forecast
Issued by NWS Green Bay, WI

Home | Current Version | Previous Version | Text Only | Print | Product List | Glossary Off
Versions: 1 2 3 4 5 6 7 8 9 10 11 12

000
FTUS43 KGRB 182342
TAFGRB
TAF
KGRB 182342Z 1900/1924 21012KT P6SM SCT200 WS010/24040KT
     FM190400 26007KT P6SM BKN250
     FM191600 24010G18KT P6SM SCT250
     FM192300 20007KT P6SM SKC=

USA.gov is the U.S. government's official web portal to all federal, state and local government web resources and services.